Time;durP1;ratioP1;P1;durP2;ratioP2;P2;SDS_P1;SDS_P2;PMS_P1;PMS_P2;Temp;Humidity;BMP_temperature;BMP_pressure;BME280_temperature;BME280_humidity;BME280_pressure;Samples;Min_cycle;Max_cycle;Signal;HPM_P1;HPM_P2
2021/08/11 00:01:50;;;;;;;822.23;557.33;;;;;;;14.69;70.92;100888.09;5030282;28;20469;-69
2021/08/11 00:04:19;;;;;;;813.80;551.60;;;;;;;14.74;70.45;100880.47;5030403;28;20441;-69
2021/08/11 00:06:47;;;;;;;820.93;559.87;;;;;;;14.77;69.87;100883.78;5030710;28;20448;-69
2021/08/11 00:09:16;;;;;;;807.53;540.67;;;;;;;14.79;69.94;100871.00;5023350;28;20435;-69
2021/08/11 00:11:44;;;;;;;820.07;559.07;;;;;;;14.82;70.31;100869.88;5024149;28;20468;-68
2021/08/11 00:14:12;;;;;;;823.97;558.23;;;;;;;14.85;69.84;100869.63;5030094;28;20829;-68
2021/08/11 00:16:41;;;;;;;834.67;577.10;;;;;;;14.85;70.54;100865.06;5030256;28;20473;-68
2021/08/11 00:19:09;;;;;;;853.47;593.67;;;;;;;14.85;70.47;100862.38;5016284;28;20442;-68
2021/08/11 00:21:37;;;;;;;846.70;589.67;;;;;;;14.88;70.30;100863.94;5030362;28;20803;-68
2021/08/11 00:24:05;;;;;;;842.87;586.77;;;;;;;14.33;69.75;100776.59;5030108;28;20909;-68
2021/08/11 00:26:34;;;;;;;875.70;630.50;;;;;;;14.88;69.97;100866.66;5030209;28;20430;-68
2021/08/11 00:29:03;;;;;;;837.43;581.90;;;;;;;14.87;69.97;100867.63;5029786;28;20444;-67
2021/08/11 00:31:31;;;;;;;853.50;621.80;;;;;;;14.78;70.12;100852.19;5030185;28;20582;-68
2021/08/11 00:34:00;;;;;;;803.83;529.83;;;;;;;14.86;68.99;100866.78;5045235;28;20527;-68
2021/08/11 00:36:30;;;;;;;827.63;577.43;;;;;;;14.87;69.17;100867.63;5043861;28;20482;-68
2021/08/11 00:38:58;;;;;;;820.53;565.97;;;;;;;14.86;68.74;100855.97;5045374;28;20452;-68
2021/08/11 00:41:27;;;;;;;840.40;587.57;;;;;;;14.82;69.32;100859.91;5018418;28;20804;-68
2021/08/11 00:43:57;;;;;;;862.50;616.97;;;;;;;14.80;69.75;100858.34;5026890;28;20547;-68
2021/08/11 00:46:26;;;;;;;884.00;624.90;;;;;;;14.72;70.44;100858.13;5016000;28;20426;-67
2021/08/11 00:48:58;;;;;;;867.70;637.17;;;;;;;14.74;69.58;100853.44;5045367;28;20530;-68
2021/08/11 00:51:28;;;;;;;858.93;627.10;;;;;;;14.72;70.18;100858.13;5044830;28;20464;-68
2021/08/11 00:54:00;;;;;;;872.03;630.53;;;;;;;14.69;69.33;100858.34;5031482;28;20450;-68
2021/08/11 00:56:30;;;;;;;869.10;636.03;;;;;;;14.68;69.13;100860.19;5015847;28;20485;-68
2021/08/11 00:59:01;;;;;;;866.67;632.47;;;;;;;14.66;69.58;100855.91;5022773;28;20450;-68
2021/08/11 01:01:32;;;;;;;861.37;622.83;;;;;;;14.58;69.38;100846.59;5041543;28;20462;-69
2021/08/11 01:04:06;;;;;;;865.50;625.70;;;;;;;14.62;69.00;100847.19;5040525;28;20448;-69
2021/08/11 01:06:37;;;;;;;860.90;618.23;;;;;;;14.59;69.08;100847.44;5032584;28;20529;-68
2021/08/11 01:09:06;;;;;;;936.70;737.23;;;;;;;14.56;69.53;100850.41;5048242;28;20456;-69
2021/08/11 01:11:44;;;;;;;910.37;699.37;;;;;;;14.49;69.09;100841.09;5035814;28;20510;-69
2021/08/11 01:14:15;;;;;;;916.37;711.03;;;;;;;14.49;68.70;100841.97;5043940;28;20528;-68
2021/08/11 01:16:44;;;;;;;920.07;726.37;;;;;;;14.45;69.39;100840.50;5043378;28;20833;-69
2021/08/11 01:19:13;;;;;;;925.50;730.37;;;;;;;14.45;69.00;100835.09;5039340;28;21270;-69
2021/08/11 01:21:49;;;;;;;922.20;722.17;;;;;;;14.41;69.31;100839.00;5032410;28;20445;-69
2021/08/11 01:24:25;;;;;;;917.47;709.60;;;;;;;14.38;69.32;100841.06;5031311;28;20498;-69
2021/08/11 01:27:28;;;;;;;913.47;703.70;;;;;;;14.29;70.37;100848.09;5031025;28;20819;-69
2021/08/11 01:30:10;;;;;;;913.10;705.67;;;;;;;14.22;70.81;100850.44;5021896;28;20451;-68
2021/08/11 01:32:54;;;;;;;897.73;687.50;;;;;;;14.19;70.37;100844.44;5047553;28;20537;-67
2021/08/11 01:35:31;;;;;;;904.30;692.97;;;;;;;14.16;70.08;100834.75;5047855;28;20453;-68
2021/08/11 01:38:02;;;;;;;888.90;664.70;;;;;;;14.16;69.89;100839.28;5031946;28;20558;-68
2021/08/11 01:40:36;;;;;;;899.43;691.33;;;;;;;14.10;69.18;100835.25;5047274;28;20451;-68
2021/08/11 01:43:07;;;;;;;913.30;701.93;;;;;;;14.12;69.09;100837.81;5032064;28;20841;-68
2021/08/11 01:45:42;;;;;;;913.57;699.07;;;;;;;14.03;68.59;100827.75;5031617;28;20474;-68
2021/08/11 01:48:14;;;;;;;898.67;677.33;;;;;;;14.09;68.23;100846.19;5033322;28;20448;-68
2021/08/11 01:50:47;;;;;;;907.83;694.57;;;;;;;14.09;68.31;100838.06;5047011;28;20970;-68
2021/08/11 01:53:22;;;;;;;924.17;724.47;;;;;;;14.07;68.22;100834.59;5031587;28;20455;-68
2021/08/11 01:55:52;;;;;;;870.30;635.00;;;;;;;14.02;69.12;100842.22;5048137;28;20989;-68
2021/08/11 01:58:22;;;;;;;897.07;689.03;;;;;;;13.92;69.33;100837.56;5017695;28;20881;-69
2021/08/11 02:00:51;;;;;;;908.30;706.73;;;;;;;13.87;69.67;100834.38;5031232;28;20444;-69
2021/08/11 02:03:22;;;;;;;915.80;715.17;;;;;;;13.82;69.74;100831.22;5047049;28;20564;-69
2021/08/11 02:05:53;;;;;;;929.97;739.23;;;;;;;13.76;69.15;100828.09;5046949;28;20564;-69
2021/08/11 02:08:23;;;;;;;926.93;737.40;;;;;;;13.75;69.13;100824.56;5047436;28;20954;-69
2021/08/11 02:10:56;;;;;;;924.10;732.77;;;;;;;13.76;69.21;100834.38;5032136;28;20822;-68
2021/08/11 02:13:27;;;;;;;922.90;733.93;;;;;;;13.74;68.64;100833.63;5047240;28;20444;-69
2021/08/11 02:15:55;;;;;;;916.53;715.93;;;;;;;13.73;68.42;100834.63;5047455;28;20862;-68
2021/08/11 02:18:25;;;;;;;932.43;737.40;;;;;;;13.68;68.65;100829.59;5047305;28;21019;-68
2021/08/11 02:20:58;;;;;;;893.77;694.93;;;;;;;13.71;68.67;100839.28;5046961;28;20547;-68
2021/08/11 02:23:27;;;;;;;894.77;703.23;;;;;;;13.64;69.18;100841.63;5029676;28;20444;-69
2021/08/11 02:26:06;;;;;;;911.03;699.87;;;;;;;13.58;68.91;100833.16;5046829;28;20827;-69
2021/08/11 02:28:46;;;;;;;918.20;719.97;;;;;;;13.43;69.46;100823.53;5047220;28;20541;-68
2021/08/11 02:31:21;;;;;;;875.77;663.43;;;;;;;13.54;69.49;100842.47;5046970;28;20480;-68
2021/08/11 02:33:57;;;;;;;902.07;700.87;;;;;;;13.51;69.33;100848.09;5047335;28;20447;-69
2021/08/11 02:36:31;;;;;;;882.93;677.20;;;;;;;13.51;69.28;100853.50;5030583;28;20449;-69
2021/08/11 02:39:05;;;;;;;863.73;659.13;;;;;;;13.52;68.29;100844.44;5047016;28;21001;-68
2021/08/11 02:41:39;;;;;;;868.07;656.33;;;;;;;13.54;68.20;100843.31;5047166;28;20784;-69
2021/08/11 02:44:14;;;;;;;899.97;698.20;;;;;;;13.55;68.19;100844.19;5045896;28;20510;-68
2021/08/11 02:46:44;;;;;;;900.07;706.33;;;;;;;13.50;68.86;100843.69;5030714;28;20433;-68
2021/08/11 02:49:19;;;;;;;893.77;701.43;;;;;;;13.41;70.02;100857.88;5045034;28;20560;-68
2021/08/11 02:51:49;;;;;;;892.40;691.27;;;;;;;13.42;69.36;100854.19;5046102;28;20468;-68
2021/08/11 02:54:20;;;;;;;891.40;693.57;;;;;;;13.36;69.17;100859.09;5045647;28;20964;-69
2021/08/11 02:56:50;;;;;;;859.97;647.07;;;;;;;13.34;69.56;100855.66;5046078;28;20492;-68
2021/08/11 02:59:22;;;;;;;922.90;721.97;;;;;;;13.32;68.92;100854.91;5045177;28;21082;-68
2021/08/11 03:01:50;;;;;;;907.30;696.93;;;;;;;13.33;69.17;100855.78;5046290;28;20543;-68
2021/08/11 03:04:19;;;;;;;918.07;719.83;;;;;;;13.31;69.17;100855.91;5046550;28;20458;-68
2021/08/11 03:06:49;;;;;;;931.23;709.60;;;;;;;13.31;68.95;100857.75;5046391;28;20454;-68
2021/08/11 03:09:21;;;;;;;918.23;722.30;;;;;;;13.31;68.78;100857.75;5046377;28;20529;-68
2021/08/11 03:11:49;;;;;;;915.30;721.07;;;;;;;13.30;68.48;100854.19;5046163;28;20952;-69
2021/08/11 03:14:18;;;;;;;939.23;740.00;;;;;;;13.32;68.31;100857.63;5046394;28;20488;-68
2021/08/11 03:16:46;;;;;;;924.40;730.70;;;;;;;13.33;68.06;100859.34;5045225;28;20811;-67
2021/08/11 03:19:17;;;;;;;920.77;727.93;;;;;;;13.30;68.54;100862.28;5030063;28;20997;-68
2021/08/11 03:21:47;;;;;;;923.97;718.30;;;;;;;13.29;68.52;100860.56;5028674;28;20427;-68
2021/08/11 03:24:17;;;;;;;930.67;733.63;;;;;;;13.29;69.08;100860.56;5028491;28;20453;-68
2021/08/11 03:26:46;;;;;;;931.63;749.17;;;;;;;13.31;68.82;100858.59;5045312;28;20909;-68
2021/08/11 03:29:14;;;;;;;928.07;743.17;;;;;;;13.30;68.28;100856.88;5045006;28;20543;-68
2021/08/11 03:31:45;;;;;;;920.93;728.50;;;;;;;13.32;69.37;100864.84;5028308;28;20988;-66
2021/08/11 03:34:14;;;;;;;930.67;747.93;;;;;;;13.27;69.67;100867.91;5045068;28;20557;-68
2021/08/11 03:36:44;;;;;;;919.83;728.23;;;;;;;13.22;70.22;100858.47;5044843;28;20453;-69
2021/08/11 03:39:14;;;;;;;918.70;715.30;;;;;;;13.22;70.06;100863.84;5045578;28;21236;-68
2021/08/11 03:41:43;;;;;;;896.57;688.17;;;;;;;13.21;69.52;100862.13;5046223;28;20511;-68
2021/08/11 03:44:12;;;;;;;910.90;700.10;;;;;;;13.19;69.92;100869.47;5043913;28;20453;-68
2021/08/11 03:46:42;;;;;;;887.23;667.07;;;;;;;13.21;69.72;100875.63;5034395;28;20477;-69
2021/08/11 03:49:12;;;;;;;919.07;714.17;;;;;;;12.84;69.63;100802.03;5045718;28;20476;-69
2021/08/11 03:51:42;;;;;;;925.73;727.63;;;;;;;13.23;69.67;100865.56;5029308;28;20495;-68
2021/08/11 03:54:11;;;;;;;931.63;734.70;;;;;;;13.24;70.38;100870.84;5042518;28;20452;-69
2021/08/11 03:56:41;;;;;;;931.77;734.40;;;;;;;13.25;69.79;100869.00;5032066;28;20451;-69
2021/08/11 03:59:10;;;;;;;915.30;716.97;;;;;;;13.23;70.20;100861.03;5045260;28;20474;-69
2021/08/11 04:01:39;;;;;;;920.30;723.73;;;;;;;13.30;69.80;100867.66;5030004;28;20882;-69
2021/08/11 04:04:08;;;;;;;912.67;711.73;;;;;;;13.32;70.34;100865.72;5030232;28;20450;-69
2021/08/11 04:06:36;;;;;;;877.27;665.97;;;;;;;13.38;69.56;100869.78;5030264;28;20486;-69
2021/08/11 04:09:04;;;;;;;928.13;722.50;;;;;;;13.39;69.54;100863.41;5030427;28;20527;-69
2021/08/11 04:11:32;;;;;;;926.03;728.07;;;;;;;10.90;69.05;100456.03;5029507;28;20445;-68
2021/08/11 04:14:01;;;;;;;901.80;698.13;;;;;;;13.47;69.13;100874.47;5029448;28;20443;-68
2021/08/11 04:16:29;;;;;;;891.67;670.93;;;;;;;13.48;69.68;100875.34;5029561;28;20800;-68
2021/08/11 04:18:57;;;;;;;865.37;617.07;;;;;;;13.47;70.33;100878.97;5029325;28;20481;-68
2021/08/11 04:21:25;;;;;;;844.63;590.33;;;;;;;13.45;71.02;100887.19;5029497;28;20518;-68
2021/08/11 04:23:53;;;;;;;825.97;560.20;;;;;;;13.46;71.00;100888.06;5029737;28;20435;-68
2021/08/11 04:26:21;;;;;;;818.53;561.50;;;;;;;13.42;71.67;100889.28;5029927;28;20858;-68
2021/08/11 04:28:50;;;;;;;808.90;545.67;;;;;;;13.44;71.91;100890.00;5033386;28;20523;-68
2021/08/11 04:31:19;;;;;;;819.40;562.67;;;;;;;13.45;72.10;100887.19;5033844;28;20465;-67
2021/08/11 04:33:47;;;;;;;813.53;554.10;;;;;;;13.50;73.52;100894.97;5034270;28;20487;-68
2021/08/11 04:36:15;;;;;;;792.17;514.10;;;;;;;13.50;72.77;100892.25;5034165;28;20801;-67
2021/08/11 04:38:43;;;;;;;785.97;513.07;;;;;;;13.58;71.83;100898.78;5034105;28;21066;-68
2021/08/11 04:41:13;;;;;;;815.60;551.20;;;;;;;13.65;71.24;100900.00;5033954;28;20477;-68
2021/08/11 04:43:41;;;;;;;826.23;570.70;;;;;;;13.71;71.79;100901.34;5033913;28;20444;-68
2021/08/11 04:46:10;;;;;;;819.30;557.87;;;;;;;13.76;71.45;100896.44;5019997;28;20472;-68
2021/08/11 04:48:39;;;;;;;818.93;558.40;;;;;;;13.83;71.90;100902.25;5034113;28;20430;-68
2021/08/11 04:51:07;;;;;;;867.33;652.30;;;;;;;13.85;73.87;100906.53;5034027;28;20999;-68
2021/08/11 04:53:35;;;;;;;846.30;616.07;;;;;;;13.80;74.39;100903.34;5034133;28;20525;-68
2021/08/11 04:56:03;;;;;;;833.33;598.30;;;;;;;13.83;75.04;100902.25;5033757;28;20549;-68
2021/08/11 04:58:31;;;;;;;842.43;618.97;;;;;;;13.86;75.12;100902.88;5033895;28;20468;-68
2021/08/11 05:00:59;;;;;;;805.13;535.97;;;;;;;13.96;74.18;100903.84;5034039;28;20474;-68
2021/08/11 05:03:28;;;;;;;811.80;549.57;;;;;;;14.04;73.98;100899.66;5020218;28;20819;-68
2021/08/11 05:05:57;;;;;;;807.17;542.47;;;;;;;14.09;73.71;100897.50;5033667;28;20536;-68
2021/08/11 05:08:25;;;;;;;857.07;613.87;;;;;;;14.20;72.42;100894.78;5033730;28;20844;-68
2021/08/11 05:10:53;;;;;;;815.80;555.97;;;;;;;14.28;72.36;100892.31;5033779;28;20513;-68
2021/08/11 05:13:21;;;;;;;813.50;551.27;;;;;;;14.41;73.28;100895.75;5033469;28;20523;-68
2021/08/11 05:15:49;;;;;;;836.20;584.20;;;;;;;14.43;76.20;100896.50;5033738;28;20471;-68
2021/08/11 05:18:17;;;;;;;811.87;546.17;;;;;;;14.40;75.97;100906.69;5033319;28;20430;-68
2021/08/11 05:20:45;;;;;;;831.10;578.90;;;;;;;14.51;74.68;100904.00;5033407;28;20569;-68
2021/08/11 05:23:15;;;;;;;836.23;594.47;;;;;;;14.64;73.37;100909.22;5032960;28;20451;-68
2021/08/11 05:25:43;;;;;;;826.53;575.40;;;;;;;14.77;72.64;100901.84;5033506;28;20476;-68
2021/08/11 05:28:11;;;;;;;849.87;612.53;;;;;;;14.85;72.88;100893.94;5033277;28;20437;-68
2021/08/11 05:30:41;;;;;;;823.77;562.63;;;;;;;14.99;74.29;100904.47;5033208;28;21038;-68
2021/08/11 05:33:09;;;;;;;832.63;570.93;;;;;;;15.04;75.68;100896.84;5033263;28;20840;-68
2021/08/11 05:35:37;;;;;;;843.00;585.53;;;;;;;15.18;74.93;100898.38;5033209;28;20969;-68
2021/08/11 05:38:06;;;;;;;800.10;533.67;;;;;;;14.70;76.10;100806.03;5032723;28;20470;-68
2021/08/11 05:40:35;;;;;;;825.10;560.57;;;;;;;15.31;77.25;100906.31;5032850;28;20576;-68
2021/08/11 05:43:06;;;;;;;822.93;563.20;;;;;;;15.30;76.03;100899.16;5030926;28;20477;-68
2021/08/11 05:45:34;;;;;;;811.17;547.57;;;;;;;15.36;77.69;100895.97;5027915;28;20475;-68
2021/08/11 05:48:02;;;;;;;826.67;566.03;;;;;;;15.46;77.59;100907.72;5025191;28;20439;-68
2021/08/11 05:50:30;;;;;;;831.50;570.57;;;;;;;15.53;76.65;100901.63;5028984;28;20430;-68
2021/08/11 05:52:58;;;;;;;821.50;556.10;;;;;;;15.66;75.09;100904.19;5028515;28;20526;-68
2021/08/11 05:55:26;;;;;;;813.00;552.20;;;;;;;15.78;75.09;100907.66;5029880;28;20545;-68
2021/08/11 05:57:55;;;;;;;813.93;544.20;;;;;;;15.86;75.57;100897.03;5028093;28;20529;-68
2021/08/11 06:00:23;;;;;;;823.63;559.07;;;;;;;15.96;76.20;100907.94;5025488;28;20509;-68
2021/08/11 06:02:51;;;;;;;809.93;542.53;;;;;;;16.04;76.18;100908.97;5028719;28;20457;-68
2021/08/11 06:05:29;;;;;;;807.10;535.07;;;;;;;15.75;77.13;100849.22;5041835;28;20448;-67
2021/08/11 06:07:57;;;;;;;825.30;568.47;;;;;;;16.11;78.08;100910.13;5026288;28;20447;-68
2021/08/11 06:10:25;;;;;;;835.63;579.30;;;;;;;16.08;78.77;100905.00;5043824;28;20442;-68
2021/08/11 06:12:54;;;;;;;821.77;558.53;;;;;;;15.69;78.98;100843.50;5018040;28;20962;-68
2021/08/11 06:15:23;;;;;;;817.07;559.70;;;;;;;16.10;80.56;100907.56;5028966;28;20711;-68
2021/08/11 06:17:52;;;;;;;814.63;552.23;;;;;;;16.16;79.06;100909.72;5026248;28;20434;-68
2021/08/11 06:20:22;;;;;;;826.07;562.87;;;;;;;16.04;79.51;100871.03;5024960;28;20476;-68
2021/08/11 06:22:50;;;;;;;796.03;530.97;;;;;;;16.19;79.94;100906.72;5027902;28;20930;-68
2021/08/11 06:25:19;;;;;;;807.03;544.83;;;;;;;16.27;78.44;100904.22;5023812;28;20935;-68
2021/08/11 06:27:48;;;;;;;810.87;550.33;;;;;;;16.38;79.19;100909.53;5029040;28;20492;-68
2021/08/11 06:30:17;;;;;;;808.93;546.87;;;;;;;16.40;79.15;100907.53;5027942;28;20535;-69
2021/08/11 06:32:45;;;;;;;819.93;567.53;;;;;;;16.46;79.49;100906.97;5026907;28;20441;-69
2021/08/11 06:35:14;;;;;;;832.93;572.83;;;;;;;16.43;79.79;100909.97;5026611;28;20476;-69
2021/08/11 06:37:47;;;;;;;820.37;565.67;;;;;;;16.42;80.05;100902.84;5027544;28;20438;-69
2021/08/11 06:40:15;;;;;;;814.93;548.20;;;;;;;16.48;80.83;100912.28;5024777;28;20607;-69
2021/08/11 06:42:44;;;;;;;811.77;546.80;;;;;;;16.54;81.01;100905.47;5041150;28;20786;-69
2021/08/11 06:45:15;;;;;;;806.53;542.70;;;;;;;16.54;81.67;100905.47;5027653;28;21092;-69
2021/08/11 06:47:44;;;;;;;809.17;541.60;;;;;;;16.60;81.68;100908.47;5037880;28;20492;-69
2021/08/11 06:50:14;;;;;;;818.93;562.33;;;;;;;16.68;82.67;100907.81;5025480;28;21045;-70
2021/08/11 06:52:42;;;;;;;829.07;574.27;;;;;;;16.73;83.12;100906.38;5025075;28;20447;-69
2021/08/11 06:55:12;;;;;;;815.60;561.70;;;;;;;16.79;82.35;100912.22;5028038;28;20441;-69
2021/08/11 06:57:41;;;;;;;814.53;558.23;;;;;;;16.80;83.00;100905.81;5028489;28;20434;-69
2021/08/11 07:00:10;;;;;;;833.97;569.57;;;;;;;16.90;82.90;100923.84;5029779;28;20484;-70
2021/08/11 07:02:39;;;;;;;816.53;562.07;;;;;;;16.92;83.00;100913.72;5030799;28;20449;-69
2021/08/11 07:05:10;;;;;;;813.23;560.50;;;;;;;17.05;82.85;100913.41;5026358;28;20441;-70
2021/08/11 07:07:41;;;;;;;795.43;534.03;;;;;;;16.89;82.55;100876.00;5027410;28;20468;-69
2021/08/11 07:10:11;;;;;;;804.57;545.57;;;;;;;17.28;81.37;100911.28;5026891;28;20526;-69
2021/08/11 07:12:40;;;;;;;811.40;553.80;;;;;;;17.39;81.37;100908.41;5028047;28;20864;-68
2021/08/11 07:15:10;;;;;;;793.77;527.67;;;;;;;17.31;81.52;100883.84;5027496;28;20434;-69
2021/08/11 07:17:50;;;;;;;807.83;556.43;;;;;;;17.54;81.72;100917.84;5028776;28;20815;-69
2021/08/11 07:20:19;;;;;;;810.93;561.97;;;;;;;17.30;82.08;100855.84;5023421;28;20472;-68
2021/08/11 07:22:58;;;;;;;801.93;546.43;;;;;;;17.41;81.48;100860.25;5086677;27;20553;-68
2021/08/11 07:25:27;;;;;;;800.97;545.27;;;;;;;17.78;80.81;100911.16;5081599;28;20430;-69
2021/08/11 07:27:55;;;;;;;758.33;479.47;;;;;;;17.95;80.39;100922.09;5084355;28;20431;-69
2021/08/11 07:30:24;;;;;;;793.03;533.00;;;;;;;18.16;79.35;100911.03;5080562;28;20436;-68
2021/08/11 07:32:52;;;;;;;800.50;533.20;;;;;;;18.31;79.90;100911.38;5083298;28;20435;-69
2021/08/11 07:35:22;;;;;;;798.83;544.70;;;;;;;18.47;79.21;100908.03;5080372;28;20436;-68
2021/08/11 07:37:52;;;;;;;793.67;528.07;;;;;;;18.62;78.49;100898.38;5084258;28;20435;-68
2021/08/11 07:40:23;;;;;;;798.73;542.13;;;;;;;19.00;77.33;100907.31;5080234;28;20434;-69
2021/08/11 07:42:51;;;;;;;795.17;533.70;;;;;;;19.30;76.92;100906.06;5084581;28;20789;-69
2021/08/11 07:45:21;;;;;;;786.10;530.97;;;;;;;19.61;75.97;100906.53;5080746;28;20436;-69
2021/08/11 07:47:54;;;;;;;758.03;482.37;;;;;;;19.91;74.91;100908.81;5084270;28;20840;-69
2021/08/11 07:50:25;;;;;;;745.60;483.70;;;;;;;20.23;73.52;100902.69;5082948;28;20194;-68
2021/08/11 07:52:53;;;;;;;755.20;491.37;;;;;;;20.54;71.28;100892.13;5085302;28;20565;-68
2021/08/11 07:55:24;;;;;;;751.97;478.73;;;;;;;20.84;69.97;100895.28;5082301;28;20204;-68
2021/08/11 07:57:53;;;;;;;739.50;470.50;;;;;;;21.17;70.19;100907.13;5117324;28;20308;-68
2021/08/11 08:00:22;;;;;;;728.90;462.97;;;;;;;21.51;69.54;100905.13;5081683;28;20197;-71
2021/08/11 08:02:50;;;;;;;788.63;569.67;;;;;;;21.85;67.51;100907.66;5071728;28;20224;-68
2021/08/11 08:05:20;;;;;;;732.23;476.13;;;;;;;22.21;63.61;100912.75;5066677;28;20286;-67
2021/08/11 08:07:49;;;;;;;727.47;462.53;;;;;;;22.56;62.15;100911.41;5066470;28;20235;-68
2021/08/11 08:10:18;;;;;;;729.93;462.80;;;;;;;22.91;59.90;100912.81;5072461;28;20583;-68
2021/08/11 08:12:48;;;;;;;742.30;495.23;;;;;;;23.24;60.42;100908.81;5083908;28;20287;-68
2021/08/11 08:15:17;;;;;;;787.00;558.28;;;;;;;23.40;59.45;100910.59;5081585;28;20495;-68
2021/08/11 08:17:46;;;;;;;745.33;500.50;;;;;;;23.60;60.87;100902.78;5075118;28;20325;-69
2021/08/11 08:20:19;;;;;;;753.40;508.47;;;;;;;23.83;59.78;100916.41;5078760;28;20279;-69
2021/08/11 08:22:49;;;;;;;743.27;496.60;;;;;;;24.06;59.67;100911.72;5080411;28;20236;-69
2021/08/11 08:25:20;;;;;;;740.93;495.27;;;;;;;24.14;58.25;100913.53;5078895;28;20676;-69
2021/08/11 08:27:50;;;;;;;748.07;509.97;;;;;;;24.11;57.74;100920.25;5082816;28;20279;-69
2021/08/11 08:30:39;;;;;;;739.33;495.43;;;;;;;24.43;57.34;100905.31;5083070;28;20193;-68
2021/08/11 08:33:07;;;;;;;744.63;501.43;;;;;;;24.65;57.76;100914.50;5075623;28;20680;-68
2021/08/11 08:35:35;;;;;;;747.87;514.43;;;;;;;24.94;57.66;100916.34;5069754;28;20204;-68
2021/08/11 08:38:04;;;;;;;750.50;521.83;;;;;;;25.07;56.86;100911.03;5070440;28;20213;-69
2021/08/11 08:40:34;;;;;;;755.27;537.23;;;;;;;25.22;55.53;100921.13;5065862;28;20208;-69
2021/08/11 08:43:06;;;;;;;753.10;531.20;;;;;;;25.09;51.80;100913.56;5068940;28;20558;-69
2021/08/11 08:45:35;;;;;;;760.17;542.27;;;;;;;25.16;52.37;100913.66;5069216;28;20208;-68
2021/08/11 08:48:04;;;;;;;782.10;575.70;;;;;;;25.29;53.44;100924.78;5067033;28;20197;-69
2021/08/11 08:50:33;;;;;;;790.60;595.00;;;;;;;25.53;53.80;100923.56;5071009;28;20652;-69
2021/08/11 08:53:03;;;;;;;761.67;544.23;;;;;;;25.51;52.79;100920.16;5067708;28;20197;-69
2021/08/11 08:55:33;;;;;;;782.43;591.67;;;;;;;25.39;50.37;100920.66;5070493;28;20205;-68
2021/08/11 08:58:04;;;;;;;783.63;590.43;;;;;;;25.46;51.38;100920.75;5066769;28;20244;-68
2021/08/11 09:00:34;;;;;;;774.27;575.37;;;;;;;25.55;50.31;100919.56;5058470;28;20213;-69
2021/08/11 09:03:03;;;;;;;770.57;572.93;;;;;;;25.48;49.97;100924.16;5059774;28;20588;-68
2021/08/11 09:05:32;;;;;;;773.43;578.77;;;;;;;25.29;47.06;100922.91;5057368;28;20293;-68
2021/08/11 09:08:00;;;;;;;801.93;620.63;;;;;;;25.48;50.42;100915.91;5060960;28;20205;-68
2021/08/11 09:10:31;;;;;;;782.70;595.47;;;;;;;25.64;50.68;100926.63;5058931;28;20209;-69
2021/08/11 09:13:07;;;;;;;771.03;576.93;;;;;;;25.62;49.69;100919.63;5068143;28;20656;-69
2021/08/11 09:15:39;;;;;;;755.90;539.90;;;;;;;25.48;48.97;100918.66;5069542;28;20209;-69
2021/08/11 09:18:16;;;;;;;741.90;516.50;;;;;;;25.73;49.89;100927.38;5068765;28;20246;-67
2021/08/11 09:20:46;;;;;;;766.53;552.27;;;;;;;26.01;49.63;100924.63;5065779;28;20266;-68
2021/08/11 09:23:15;;;;;;;796.90;614.07;;;;;;;26.29;48.81;100928.22;5067540;28;20221;-69
2021/08/11 09:26:01;;;;;;;789.40;600.20;;;;;;;26.27;48.22;100930.31;5068574;28;20615;-70
2021/08/11 09:28:30;;;;;;;800.07;620.60;;;;;;;26.19;48.69;100924.97;5067228;28;20201;-69
2021/08/11 09:31:20;;;;;;;810.87;630.47;;;;;;;25.98;47.36;100919.50;5068783;28;20626;-68
2021/08/11 09:33:50;;;;;;;783.60;595.23;;;;;;;26.00;48.75;100921.00;5060795;28;20213;-69
2021/08/11 09:36:19;;;;;;;766.73;577.33;;;;;;;25.97;48.50;100926.06;5069587;28;20205;-69
2021/08/11 09:38:57;;;;;;;756.87;556.13;;;;;;;26.20;47.93;100929.44;5061707;28;21115;-69
2021/08/11 09:41:26;;;;;;;766.10;568.27;;;;;;;25.95;46.95;100919.91;5063414;28;20208;-69
2021/08/11 09:44:08;;;;;;;777.03;580.77;;;;;;;25.66;47.35;100874.13;5068132;28;20217;-69
2021/08/11 09:46:39;;;;;;;783.17;594.97;;;;;;;25.80;49.05;100920.03;5068363;28;20190;-69
2021/08/11 09:49:15;;;;;;;765.23;564.40;;;;;;;26.31;47.96;100925.25;5068132;28;20201;-69
2021/08/11 09:51:57;;;;;;;784.83;601.13;;;;;;;26.42;48.10;100915.63;5049635;28;20200;-69
2021/08/11 09:54:27;;;;;;;801.03;623.63;;;;;;;26.89;47.11;100926.63;5063281;28;20548;-69
2021/08/11 09:56:55;;;;;;;797.57;620.73;;;;;;;27.16;46.29;100924.84;5068507;28;20208;-69
2021/08/11 09:59:24;;;;;;;818.13;654.30;;;;;;;27.15;44.76;100922.31;5067738;28;20205;-69
2021/08/11 10:02:13;;;;;;;834.20;685.13;;;;;;;26.34;46.07;100885.50;5056818;28;20699;-69
2021/08/11 10:04:42;;;;;;;821.13;662.93;;;;;;;26.83;44.36;100929.38;5069771;28;20251;-69
2021/08/11 10:07:10;;;;;;;816.57;644.87;;;;;;;26.83;46.07;100919.19;5070113;28;20201;-69
2021/08/11 10:09:41;;;;;;;833.53;677.53;;;;;;;26.54;45.86;100925.84;5068721;28;20259;-69
2021/08/11 10:12:27;;;;;;;820.97;659.50;;;;;;;26.80;47.11;100919.63;5070021;28;20204;-69
2021/08/11 10:14:56;;;;;;;806.03;638.70;;;;;;;26.35;46.36;100867.91;5068736;28;20201;-69
2021/08/11 10:17:29;;;;;;;840.87;691.57;;;;;;;26.92;46.49;100920.72;5069971;28;20583;-69
2021/08/11 10:19:58;;;;;;;834.17;682.70;;;;;;;26.77;46.48;100930.19;5068656;28;20277;-69
2021/08/11 10:22:27;;;;;;;826.80;669.63;;;;;;;26.51;47.97;100906.13;5069278;28;20252;-69
2021/08/11 10:24:56;;;;;;;831.13;676.33;;;;;;;26.08;49.13;100927.44;5067953;28;20201;-69
2021/08/11 10:27:25;;;;;;;817.90;657.87;;;;;;;25.51;49.14;100914.66;5068996;28;20264;-68
2021/08/11 10:29:54;;;;;;;812.77;655.93;;;;;;;25.16;51.12;100914.53;5069344;28;20204;-69
2021/08/11 10:32:23;;;;;;;824.97;662.43;;;;;;;24.79;50.40;100910.00;5069004;28;20324;-69
2021/08/11 10:34:55;;;;;;;813.63;643.40;;;;;;;24.76;51.55;100913.16;5068488;28;20330;-69
2021/08/11 10:37:24;;;;;;;805.23;628.27;;;;;;;24.58;51.70;100890.75;5054542;28;20208;-68
2021/08/11 10:39:53;;;;;;;817.40;651.10;;;;;;;24.67;51.53;100917.91;5069704;28;20247;-68
2021/08/11 10:42:21;;;;;;;816.10;649.53;;;;;;;25.14;51.13;100916.63;5067767;28;20727;-69
2021/08/11 10:44:58;;;;;;;788.47;606.00;;;;;;;25.11;49.61;100917.00;5069792;28;20201;-68
2021/08/11 10:47:31;;;;;;;802.40;623.97;;;;;;;25.13;48.43;100914.06;5069639;28;20197;-68
2021/08/11 10:50:03;;;;;;;819.43;657.10;;;;;;;25.48;50.07;100912.31;5069945;28;20197;-68
2021/08/11 10:52:32;;;;;;;822.60;665.63;;;;;;;25.33;49.71;100912.34;5069487;28;20687;-69
2021/08/11 10:55:03;;;;;;;824.43;661.77;;;;;;;25.37;50.67;100914.50;5069617;28;20201;-69
2021/08/11 10:57:45;;;;;;;832.27;678.43;;;;;;;25.58;50.32;100912.81;5069282;28;20204;-69
2021/08/11 11:00:42;;;;;;;813.93;644.40;;;;;;;25.36;50.08;100917.47;5069317;28;20200;-69
2021/08/11 11:03:11;;;;;;;805.93;633.17;;;;;;;25.19;51.86;100919.63;5055250;28;20213;-69
2021/08/11 11:06:03;;;;;;;806.47;634.50;;;;;;;25.20;50.63;100914.97;5069374;28;20203;-69
2021/08/11 11:08:35;;;;;;;786.40;599.00;;;;;;;24.98;51.13;100912.19;5056155;28;20208;-69
2021/08/11 11:11:35;;;;;;;793.27;609.03;;;;;;;24.82;51.55;100906.06;5069137;28;20206;-69